Time;durP1;ratioP1;P1;durP2;ratioP2;P2;SDS_P1;SDS_P2;PMS_P1;PMS_P2;Temp;Humidity;BMP_temperature;BMP_pressure;BME280_temperature;BME280_humidity;BME280_pressure;Samples;Min_cycle;Max_cycle;Signal;HPM_P1;HPM_P2
2023/09/24 00:00:41;;;;;;;;;;;;;;;17.89;36.67;100329.13;5073234;28;19912;-61
2023/09/24 00:03:07;;;;;;;;;;;;;;;17.87;37.11;100328.53;5075067;28;19913;-64
2023/09/24 00:05:32;;;;;;;;;;;;;;;17.86;37.75;100340.47;5071827;28;20376;-59
2023/09/24 00:07:58;;;;;;;;;;;;;;;17.79;35.99;100331.59;5074206;28;19950;-56
2023/09/24 00:10:24;;;;;;;;;;;;;;;17.74;39.16;100326.94;5075027;28;19912;-67
2023/09/24 00:12:50;;;;;;;;;;;;;;;17.77;37.03;100333.75;5071400;28;19962;-66
2023/09/24 00:15:15;;;;;;;;;;;;;;;17.70;36.80;100333.91;5074849;28;19912;-66
2023/09/24 00:17:41;;;;;;;;;;;;;;;17.60;37.25;100337.25;5078874;28;19916;-66
2023/09/24 00:20:06;;;;;;;;;;;;;;;17.58;37.90;100344.81;5073805;28;20429;-67
2023/09/24 00:22:33;;;;;;;;;;;;;;;17.61;37.58;100357.94;5074681;28;19913;-67
2023/09/24 00:24:58;;;;;;;;;;;;;;;17.61;37.61;100360.63;5069447;28;20030;-67
2023/09/24 00:27:24;;;;;;;;;;;;;;;17.62;37.54;100356.03;5074441;28;20074;-64
2023/09/24 00:29:49;;;;;;;;;;;;;;;17.59;37.59;100361.97;5073287;28;19913;-62
2023/09/24 00:32:14;;;;;;;;;;;;;;;17.55;38.02;100372.47;5071997;28;19938;-62
2023/09/24 00:34:39;;;;;;;;;;;;;;;17.49;38.47;100378.03;5072881;28;19951;-60
2023/09/24 00:37:05;;;;;;;;;;;;;;;17.43;38.43;100374.41;5072693;28;19920;-60
2023/09/24 00:39:30;;;;;;;;;;;;;;;17.37;38.42;100378.09;5074572;28;20414;-62
2023/09/24 00:41:56;;;;;;;;;;;;;;;17.35;37.54;100382.94;5074654;28;20266;-62
2023/09/24 00:44:22;;;;;;;;;;;;;;;17.31;37.48;100390.75;5072491;28;20289;-61
2023/09/24 00:46:47;;;;;;;;;;;;;;;17.33;37.83;100398.66;5073811;28;19956;-59
2023/09/24 00:49:13;;;;;;;;;;;;;;;17.28;37.55;100401.25;5072721;28;20005;-60
2023/09/24 00:51:40;;;;;;;;;;;;;;;17.27;37.98;100405.00;5074139;28;19912;-59
2023/09/24 00:54:06;;;;;;;;;;;;;;;17.18;38.22;100413.53;5073073;28;19951;-60
2023/09/24 00:56:32;;;;;;;;;;;;;;;17.11;37.54;100415.56;5072260;28;19943;-63
2023/09/24 00:58:58;;;;;;;;;;;;;;;17.07;38.17;100421.69;5073933;28;20386;-63
2023/09/24 01:01:24;;;;;;;;;;;;;;;17.05;38.26;100424.66;5072042;28;19916;-62
2023/09/24 01:03:50;;;;;;;;;;;;;;;16.98;38.19;100432.91;5074095;28;20015;-60
2023/09/24 01:06:17;;;;;;;;;;;;;;;16.92;38.41;100423.00;5072693;28;19913;-61
2023/09/24 01:08:42;;;;;;;;;;;;;;;16.95;38.16;100432.53;5072311;28;19920;-61
2023/09/24 01:11:08;;;;;;;;;;;;;;;16.96;37.93;100431.50;5037413;28;20332;-61
2023/09/24 01:13:40;;;;;;;;;;;;;;;16.90;37.29;100432.41;5064995;28;19920;-61
2023/09/24 01:16:06;;;;;;;;;;;;;;;16.88;37.84;100438.06;5069597;28;19971;-61
2023/09/24 01:18:34;;;;;;;;;;;;;;;16.81;37.18;100438.19;5095556;28;19966;-59
2023/09/24 01:21:00;;;;;;;;;;;;;;;16.77;37.45;100431.59;5095043;28;19963;-61
2023/09/24 01:23:25;;;;;;;;;;;;;;;16.82;37.95;100434.41;5083108;28;19916;-61
2023/09/24 01:25:51;;;;;;;;;;;;;;;16.79;38.00;100434.03;5074805;28;19962;-60
2023/09/24 01:28:16;;;;;;;;;;;;;;;16.72;37.40;100436.88;5083328;28;20335;-60
2023/09/24 01:30:44;;;;;;;;;;;;;;;16.69;37.95;100442.75;5073599;28;19949;-61
2023/09/24 01:33:09;;;;;;;;;;;;;;;16.69;38.28;100447.38;5073468;28;19919;-61
2023/09/24 01:35:36;;;;;;;;;;;;;;;16.65;37.98;100455.16;5072842;28;19916;-59
2023/09/24 01:38:04;;;;;;;;;;;;;;;16.59;38.07;100458.81;5055523;28;20078;-61
2023/09/24 01:40:33;;;;;;;;;;;;;;;16.59;38.33;100473.19;5073436;28;19995;-61
2023/09/24 01:42:59;;;;;;;;;;;;;;;16.60;38.53;100468.56;5073679;28;20351;-60
2023/09/24 01:45:26;;;;;;;;;;;;;;;16.57;38.32;100467.16;5074140;28;19923;-62
2023/09/24 01:47:51;;;;;;;;;;;;;;;16.57;38.48;100463.63;5074512;28;19958;-60
2023/09/24 01:50:17;;;;;;;;;;;;;;;16.55;38.69;100465.75;5074672;28;20384;-59
2023/09/24 01:52:45;;;;;;;;;;;;;;;16.55;38.87;100469.28;5074557;28;19913;-60
2023/09/24 01:55:13;;;;;;;;;;;;;;;16.54;38.57;100473.03;5078404;28;20332;-60
2023/09/24 01:57:40;;;;;;;;;;;;;;;16.53;39.32;100474.13;5087321;28;19916;-60
2023/09/24 02:00:11;;;;;;;;;;;;;;;16.54;39.37;100470.34;5073969;28;20010;-61
2023/09/24 02:02:38;;;;;;;;;;;;;;;16.50;39.06;100471.88;5073856;28;20258;-59
2023/09/24 02:05:06;;;;;;;;;;;;;;;16.45;39.75;100479.84;5074331;28;19926;-60
2023/09/24 02:07:31;;;;;;;;;;;;;;;16.39;38.91;100481.63;5074056;28;19912;-60
2023/09/24 02:09:57;;;;;;;;;;;;;;;16.41;40.12;100486.81;5070242;28;19974;-60
2023/09/24 02:12:22;;;;;;;;;;;;;;;16.40;39.15;100491.41;5053978;28;19919;-59
2023/09/24 02:14:48;;;;;;;;;;;;;;;16.35;39.22;100493.97;5053833;28;19940;-59
2023/09/24 02:17:13;;;;;;;;;;;;;;;16.39;40.10;100505.19;5087062;28;20313;-60
2023/09/24 02:19:38;;;;;;;;;;;;;;;16.39;40.38;100500.59;5093993;28;19916;-60
2023/09/24 02:22:03;;;;;;;;;;;;;;;16.40;39.03;100513.09;5094361;28;20671;-60
2023/09/24 02:24:29;;;;;;;;;;;;;;;16.33;39.06;100516.97;5094095;28;20045;-62
2023/09/24 02:26:55;;;;;;;;;;;;;;;16.23;39.90;100523.75;5093132;28;19949;-61
2023/09/24 02:29:20;;;;;;;;;;;;;;;16.32;39.76;100518.81;5073716;28;20349;-60
2023/09/24 02:31:46;;;;;;;;;;;;;;;16.33;39.15;100525.09;5073468;28;20304;-62
2023/09/24 02:34:12;;;;;;;;;;;;;;;16.33;39.55;100525.91;5073835;28;19913;-61
2023/09/24 02:36:37;;;;;;;;;;;;;;;16.29;39.16;100527.44;5073917;28;19912;-61
2023/09/24 02:39:03;;;;;;;;;;;;;;;16.25;38.91;100529.78;5073637;28;19916;-60
2023/09/24 02:41:29;;;;;;;;;;;;;;;16.24;38.94;100536.25;5073579;28;19919;-60
2023/09/24 02:43:55;;;;;;;;;;;;;;;16.18;39.30;100541.75;5073299;28;19917;-58
2023/09/24 02:46:20;;;;;;;;;;;;;;;16.17;39.03;100540.91;5073513;28;19919;-60
2023/09/24 02:48:45;;;;;;;;;;;;;;;16.09;40.11;100543.13;5073139;28;19913;-60
2023/09/24 02:51:12;;;;;;;;;;;;;;;16.12;39.08;100543.50;5073457;28;20012;-59
2023/09/24 02:53:38;;;;;;;;;;;;;;;16.18;40.37;100547.19;5055148;28;20434;-60
2023/09/24 02:56:04;;;;;;;;;;;;;;;16.17;39.62;100553.66;5072913;28;19912;-60
2023/09/24 02:58:33;;;;;;;;;;;;;;;16.15;40.03;100551.16;5072946;28;20313;-59
2023/09/24 03:00:59;;;;;;;;;;;;;;;16.14;38.05;100554.94;5073148;28;19916;-60
2023/09/24 03:03:25;;;;;;;;;;;;;;;16.17;39.50;100554.47;5053160;28;20276;-60
2023/09/24 03:05:50;;;;;;;;;;;;;;;16.17;38.94;100559.06;5053184;28;19912;-60
2023/09/24 03:08:16;;;;;;;;;;;;;;;16.14;39.32;100554.94;5052909;28;19956;-60
2023/09/24 03:10:42;;;;;;;;;;;;;;;16.00;37.61;100575.94;5062629;28;19950;-58
2023/09/24 03:13:07;;;;;;;;;;;;;;;16.07;37.89;100562.31;5073497;28;19936;-58
2023/09/24 03:15:33;;;;;;;;;;;;;;;16.11;37.65;100566.22;5075725;28;20246;-59
2023/09/24 03:17:59;;;;;;;;;;;;;;;16.06;38.30;100561.50;5093169;28;19962;-58
2023/09/24 03:20:25;;;;;;;;;;;;;;;16.12;38.41;100564.34;5093217;28;19915;-58
2023/09/24 03:22:55;;;;;;;;;;;;;;;16.18;39.11;100577.00;5093139;28;19964;-59
2023/09/24 03:25:21;;;;;;;;;;;;;;;16.18;38.80;100582.41;5076300;28;19920;-60
2023/09/24 03:27:51;;;;;;;;;;;;;;;16.20;40.18;100589.25;5081356;28;19912;-61
2023/09/24 03:30:19;;;;;;;;;;;;;;;16.23;38.50;100587.94;5053113;28;19913;-61
2023/09/24 03:32:46;;;;;;;;;;;;;;;16.15;38.69;100602.66;5052668;28;20007;-61
2023/09/24 03:35:11;;;;;;;;;;;;;;;16.03;37.79;100604.47;5052876;28;19920;-59
2023/09/24 03:37:37;;;;;;;;;;;;;;;16.01;37.90;100614.69;5052668;28;19913;-61
2023/09/24 03:40:10;;;;;;;;;;;;;;;16.00;38.29;100623.88;5052574;28;19920;-59
2023/09/24 03:42:35;;;;;;;;;;;;;;;16.02;38.23;100624.47;5052676;28;19924;-60
2023/09/24 03:45:01;;;;;;;;;;;;;;;15.97;38.46;100621.59;5060479;28;19912;-61
2023/09/24 03:47:26;;;;;;;;;;;;;;;16.04;38.87;100619.66;5072932;28;19913;-60
2023/09/24 03:49:51;;;;;;;;;;;;;;;16.07;38.66;100632.75;5072619;28;19992;-59
2023/09/24 03:52:17;;;;;;;;;;;;;;;16.05;38.71;100627.56;5067920;28;20292;-60
2023/09/24 03:54:42;;;;;;;;;;;;;;;16.09;39.34;100635.25;5072157;28;19960;-60
2023/09/24 03:57:07;;;;;;;;;;;;;;;15.96;39.18;100633.50;5072884;28;19912;-60
2023/09/24 03:59:36;;;;;;;;;;;;;;;15.94;38.92;100636.44;5057154;28;19917;-57
2023/09/24 04:02:01;;;;;;;;;;;;;;;15.96;38.69;100641.63;5056373;28;20019;-59
2023/09/24 04:04:27;;;;;;;;;;;;;;;15.91;37.83;100642.28;5056674;28;19995;-59
2023/09/24 04:06:52;;;;;;;;;;;;;;;15.91;37.95;100655.84;5056083;28;20392;-60
2023/09/24 04:09:17;;;;;;;;;;;;;;;15.87;38.46;100649.22;5056055;28;19927;-60
2023/09/24 04:11:42;;;;;;;;;;;;;;;15.87;38.23;100651.94;5074386;28;19912;-61
2023/09/24 04:14:08;;;;;;;;;;;;;;;15.91;37.83;100663.16;5076318;28;19912;-59
2023/09/24 04:16:34;;;;;;;;;;;;;;;15.96;37.89;100660.59;5087495;28;19927;-59
2023/09/24 04:18:59;;;;;;;;;;;;;;;15.85;38.21;100671.09;5096367;28;19942;-60
2023/09/24 04:21:24;;;;;;;;;;;;;;;15.97;39.55;100670.38;5080894;28;19924;-61
2023/09/24 04:23:50;;;;;;;;;;;;;;;16.01;37.66;100676.97;5076153;28;19912;-61
2023/09/24 04:26:20;;;;;;;;;;;;;;;15.92;36.94;100678.34;5076398;28;20368;-61
2023/09/24 04:28:45;;;;;;;;;;;;;;;15.98;39.06;100677.47;5084680;28;19919;-60
2023/09/24 04:31:11;;;;;;;;;;;;;;;15.91;37.51;100682.09;5076084;28;20003;-60
2023/09/24 04:33:37;;;;;;;;;;;;;;;15.89;37.61;100678.78;5075816;28;19912;-60
2023/09/24 04:36:04;;;;;;;;;;;;;;;15.87;37.65;100681.72;5076080;28;20331;-61
2023/09/24 04:38:30;;;;;;;;;;;;;;;15.88;38.85;100680.69;5075793;28;20027;-59
2023/09/24 04:40:56;;;;;;;;;;;;;;;15.84;37.59;100684.88;5075685;28;20385;-59
2023/09/24 04:43:21;;;;;;;;;;;;;;;15.74;38.07;100685.38;5076146;28;19919;-60
2023/09/24 04:45:47;;;;;;;;;;;;;;;15.64;38.57;100679.63;5075577;28;19934;-61
2023/09/24 04:48:12;;;;;;;;;;;;;;;15.71;39.12;100679.53;5075711;28;19913;-60
2023/09/24 04:50:37;;;;;;;;;;;;;;;15.65;37.82;100684.78;5075362;28;19912;-60
2023/09/24 04:53:05;;;;;;;;;;;;;;;15.71;39.19;100693.09;5075162;28;19916;-61
2023/09/24 04:55:31;;;;;;;;;;;;;;;15.75;39.76;100705.16;5071959;28;19911;-60
2023/09/24 04:57:56;;;;;;;;;;;;;;;15.70;38.56;100711.22;5077734;28;19946;-58
2023/09/24 05:00:22;;;;;;;;;;;;;;;15.67;38.88;100706.25;5095736;28;19912;-60
2023/09/24 05:02:47;;;;;;;;;;;;;;;15.73;38.68;100709.94;5081622;28;19965;-60
2023/09/24 05:05:14;;;;;;;;;;;;;;;15.75;38.66;100707.88;5075338;28;19920;-60
2023/09/24 05:07:40;;;;;;;;;;;;;;;15.73;38.30;100707.22;5074835;28;19913;-59
2023/09/24 05:10:06;;;;;;;;;;;;;;;15.72;38.87;100719.13;5070300;28;19917;-60
2023/09/24 05:12:31;;;;;;;;;;;;;;;15.66;39.52;100718.97;5055024;28;20022;-60
2023/09/24 05:14:56;;;;;;;;;;;;;;;15.63;38.76;100729.41;5037144;28;19970;-59
2023/09/24 05:17:22;;;;;;;;;;;;;;;15.58;39.20;100746.31;5077126;28;19912;-59
2023/09/24 05:19:47;;;;;;;;;;;;;;;15.57;39.47;100751.94;5075022;28;19942;-60
2023/09/24 05:22:12;;;;;;;;;;;;;;;15.51;39.14;100758.22;5075262;28;20400;-60
2023/09/24 05:24:38;;;;;;;;;;;;;;;15.46;39.42;100765.13;5074709;28;20333;-60
2023/09/24 05:27:03;;;;;;;;;;;;;;;15.46;39.30;100764.31;5058769;28;19914;-58
2023/09/24 05:29:28;;;;;;;;;;;;;;;15.43;39.19;100762.88;5081093;28;19920;-60
2023/09/24 05:31:54;;;;;;;;;;;;;;;15.47;40.23;100768.66;5074413;28;19920;-59
2023/09/24 05:34:19;;;;;;;;;;;;;;;15.35;38.17;100770.41;5074505;28;19919;-61
2023/09/24 05:36:45;;;;;;;;;;;;;;;15.36;38.34;100762.06;5074467;28;19912;-58
2023/09/24 05:39:11;;;;;;;;;;;;;;;15.45;39.09;100784.28;5074764;28;19916;-60
2023/09/24 05:41:36;;;;;;;;;;;;;;;15.48;38.87;100791.97;5074691;28;19920;-60
2023/09/24 05:44:04;;;;;;;;;;;;;;;15.42;38.42;100798.28;5074175;28;19974;-60
2023/09/24 05:46:29;;;;;;;;;;;;;;;15.40;38.76;100803.06;5074372;28;20426;-60
2023/09/24 05:48:56;;;;;;;;;;;;;;;15.39;38.75;100809.50;5074647;28;19912;-60
2023/09/24 05:51:22;;;;;;;;;;;;;;;15.40;38.36;100813.91;5060907;28;19912;-60
2023/09/24 05:53:47;;;;;;;;;;;;;;;15.37;37.78;100822.44;5073321;28;19920;-60
2023/09/24 05:56:12;;;;;;;;;;;;;;;15.39;38.35;100828.47;5074172;28;19912;-60
2023/09/24 05:58:38;;;;;;;;;;;;;;;15.46;39.15;100835.50;5074073;28;19916;-60
2023/09/24 06:01:03;;;;;;;;;;;;;;;15.50;39.34;100838.59;5074347;28;19919;-59
2023/09/24 06:03:29;;;;;;;;;;;;;;;15.54;38.08;100839.00;5074171;28;19916;-60
2023/09/24 06:05:54;;;;;;;;;;;;;;;15.59;38.39;100850.84;5056331;28;19923;-60
2023/09/24 06:08:20;;;;;;;;;;;;;;;15.62;38.46;100852.25;5073770;28;20369;-59
2023/09/24 06:10:46;;;;;;;;;;;;;;;15.56;37.98;100853.97;5063710;28;19913;-59
2023/09/24 06:13:15;;;;;;;;;;;;;;;15.56;38.09;100859.38;5063591;28;19919;-59
2023/09/24 06:15:41;;;;;;;;;;;;;;;15.51;37.76;100878.16;5077999;28;19952;-59
2023/09/24 06:18:06;;;;;;;;;;;;;;;15.47;37.47;100874.22;5094058;28;19919;-59
2023/09/24 06:20:32;;;;;;;;;;;;;;;15.49;37.96;100882.97;5093639;28;19912;-58
2023/09/24 06:22:57;;;;;;;;;;;;;;;15.51;38.72;100883.59;5093949;28;19922;-60
2023/09/24 06:25:23;;;;;;;;;;;;;;;15.52;37.57;100881.69;5094043;28;20361;-60
2023/09/24 06:27:48;;;;;;;;;;;;;;;15.57;37.43;100879.19;5094031;28;19916;-58
2023/09/24 06:30:14;;;;;;;;;;;;;;;15.60;37.67;100882.28;5094198;28;19916;-60
2023/09/24 06:32:39;;;;;;;;;;;;;;;15.58;37.02;100876.25;5093977;28;19934;-60
2023/09/24 06:35:04;;;;;;;;;;;;;;;15.58;37.11;100884.38;5074788;28;19927;-58
2023/09/24 06:37:30;;;;;;;;;;;;;;;15.56;36.88;100885.63;5055603;28;19998;-60
2023/09/24 06:39:56;;;;;;;;;;;;;;;15.61;37.22;100897.47;5073522;28;19928;-59
2023/09/24 06:42:21;;;;;;;;;;;;;;;15.73;37.87;100899.47;5073329;28;19912;-60
2023/09/24 06:44:47;;;;;;;;;;;;;;;15.82;37.45;100903.63;5073550;28;19912;-60
2023/09/24 06:47:13;;;;;;;;;;;;;;;15.84;37.09;100906.94;5073549;28;20351;-60
2023/09/24 06:49:38;;;;;;;;;;;;;;;15.91;37.89;100901.50;5073325;28;19912;-60
2023/09/24 06:52:03;;;;;;;;;;;;;;;15.91;36.95;100902.31;5055275;28;19935;-60
2023/09/24 06:54:29;;;;;;;;;;;;;;;15.94;36.77;100903.78;5072825;28;20026;-61
2023/09/24 06:56:54;;;;;;;;;;;;;;;15.99;36.87;100912.91;5092015;28;19916;-58
2023/09/24 06:59:19;;;;;;;;;;;;;;;16.05;36.82;100917.44;5093745;28;20250;-60
2023/09/24 07:01:45;;;;;;;;;;;;;;;16.11;36.49;100923.88;5066826;28;20434;-61
2023/09/24 07:04:10;;;;;;;;;;;;;;;16.10;36.67;100919.50;5053196;28;19920;-61
2023/09/24 07:06:35;;;;;;;;;;;;;;;16.22;37.21;100930.47;5053072;28;19913;-60
2023/09/24 07:09:01;;;;;;;;;;;;;;;16.30;36.71;100930.19;5058725;28;20015;-60
2023/09/24 07:11:28;;;;;;;;;;;;;;;16.37;37.12;100932.88;5057481;28;19913;-61
2023/09/24 07:13:53;;;;;;;;;;;;;;;16.41;35.96;100942.22;5053186;28;19956;-61
2023/09/24 07:16:23;;;;;;;;;;;;;;;16.41;36.73;100944.91;5071476;28;20326;-61
2023/09/24 07:18:51;;;;;;;;;;;;;;;16.41;36.23;100950.34;5093504;28;19961;-61
2023/09/24 07:21:21;;;;;;;;;;;;;;;16.40;36.00;100957.66;5093166;28;19916;-60
2023/09/24 07:23:51;;;;;;;;;;;;;;;16.42;36.78;100947.41;5093255;28;19912;-60
2023/09/24 07:26:16;;;;;;;;;;;;;;;16.50;37.07;100940.06;5093267;28;19912;-60
2023/09/24 07:28:42;;;;;;;;;;;;;;;16.47;35.79;100941.31;5077320;28;20446;-61
2023/09/24 07:31:14;;;;;;;;;;;;;;;16.49;35.76;100946.53;5073183;28;19920;-61
2023/09/24 07:33:42;;;;;;;;;;;;;;;16.51;36.72;100952.56;5075537;28;19912;-61
2023/09/24 07:36:08;;;;;;;;;;;;;;;16.57;36.66;100966.06;5077133;28;19920;-59
2023/09/24 07:38:33;;;;;;;;;;;;;;;16.57;36.20;100976.09;5042404;28;19922;-60
2023/09/24 07:40:59;;;;;;;;;;;;;;;16.56;35.92;100993.41;5076894;28;19999;-60
2023/09/24 07:43:25;;;;;;;;;;;;;;;16.54;36.09;100993.63;5076893;28;19971;-60
2023/09/24 07:45:50;;;;;;;;;;;;;;;16.56;35.82;100991.50;5076724;28;20377;-61
2023/09/24 07:48:15;;;;;;;;;;;;;;;16.57;35.19;100993.19;5076718;28;20361;-59
2023/09/24 07:50:47;;;;;;;;;;;;;;;16.71;36.01;100995.78;5076540;28;19912;-60
2023/09/24 07:53:12;;;;;;;;;;;;;;;16.71;35.13;100993.06;5076534;28;19912;-59
2023/09/24 07:55:38;;;;;;;;;;;;;;;16.71;35.40;100999.31;5083817;28;19912;-60
2023/09/24 07:58:03;;;;;;;;;;;;;;;16.73;35.81;100994.50;5096726;28;20630;-61
2023/09/24 08:00:29;;;;;;;;;;;;;;;16.73;34.84;100993.69;5096752;28;19913;-60
2023/09/24 08:02:54;;;;;;;;;;;;;;;16.77;35.30;101003.88;5081713;28;19924;-59
2023/09/24 08:05:19;;;;;;;;;;;;;;;16.79;35.63;101018.03;5076517;28;19913;-60
2023/09/24 08:07:46;;;;;;;;;;;;;;;16.80;35.55;101019.69;5058076;28;19912;-61
2023/09/24 08:10:11;;;;;;;;;;;;;;;16.74;35.31;101031.44;5053140;28;19931;-60
2023/09/24 08:12:36;;;;;;;;;;;;;;;16.67;35.59;101035.25;5056166;28;19913;-60
2023/09/24 08:15:04;;;;;;;;;;;;;;;16.74;34.92;101038.75;5056414;28;20000;-60
2023/09/24 08:17:29;;;;;;;;;;;;;;;16.83;35.48;101042.88;5093737;28;19912;-60
2023/09/24 08:19:55;;;;;;;;;;;;;;;16.82;34.53;101042.03;5096161;28;19924;-60
2023/09/24 08:22:22;;;;;;;;;;;;;;;16.82;34.80;101044.75;5096150;28;19999;-61
2023/09/24 08:24:47;;;;;;;;;;;;;;;16.93;33.99;101042.38;5096142;28;19916;-60
2023/09/24 08:27:13;;;;;;;;;;;;;;;16.96;34.16;101041.94;5083769;28;19958;-60
2023/09/24 08:29:38;;;;;;;;;;;;;;;16.95;34.86;101049.22;5080856;28;19991;-60
2023/09/24 08:32:04;;;;;;;;;;;;;;;16.88;34.07;101059.31;5075588;28;20004;-61
2023/09/24 08:34:30;;;;;;;;;;;;;;;17.00;34.00;101059.44;5075806;28;20011;-61
2023/09/24 08:36:55;;;;;;;;;;;;;;;17.05;34.12;101075.91;5075802;28;20015;-60
2023/09/24 08:39:20;;;;;;;;;;;;;;;17.08;33.82;101078.16;5075688;28;19916;-61
2023/09/24 08:41:45;;;;;;;;;;;;;;;17.12;33.52;101076.63;5075627;28;19913;-60
2023/09/24 08:44:17;;;;;;;;;;;;;;;17.16;33.50;101075.16;5074973;28;19920;-61
2023/09/24 08:46:43;;;;;;;;;;;;;;;17.31;33.36;101080.25;5075465;28;19958;-61
2023/09/24 08:49:10;;;;;;;;;;;;;;;17.31;33.84;101082.97;5075667;28;19912;-60
2023/09/24 08:51:35;;;;;;;;;;;;;;;17.41;34.19;101077.84;5075462;28;19928;-61
2023/09/24 08:54:03;;;;;;;;;;;;;;;17.51;33.91;101065.63;5074931;28;19913;-61
2023/09/24 08:56:28;;;;;;;;;;;;;;;17.42;33.82;101074.09;5090193;28;20412;-60
2023/09/24 08:58:54;;;;;;;;;;;;;;;17.47;33.05;101064.44;5095332;28;20046;-61
2023/09/24 09:01:20;;;;;;;;;;;;;;;17.58;33.07;101069.94;5089739;28;19958;-61
2023/09/24 09:03:46;;;;;;;;;;;;;;;17.60;32.67;101075.97;5055545;28;19919;-60
2023/09/24 09:06:28;;;;;;;;;;;;;;;17.68;32.55;101083.03;5055493;28;19972;-60
2023/09/24 09:08:53;;;;;;;;;;;;;;;17.83;34.16;101090.78;5054894;28;19921;-61
2023/09/24 09:11:19;;;;;;;;;;;;;;;17.75;32.54;101088.34;5069946;28;19916;-59
2023/09/24 09:13:48;;;;;;;;;;;;;;;17.79;32.52;101095.00;5075078;28;19923;-60
2023/09/24 09:16:16;;;;;;;;;;;;;;;17.84;32.82;101084.28;5083842;28;19912;-60
2023/09/24 09:18:41;;;;;;;;;;;;;;;17.99;33.24;101092.09;5095276;28;20386;-60
2023/09/24 09:21:06;;;;;;;;;;;;;;;18.01;33.01;101097.31;5095146;28;20007;-60
2023/09/24 09:23:35;;;;;;;;;;;;;;;18.04;33.02;101102.28;5078843;28;20373;-59
2023/09/24 09:26:01;;;;;;;;;;;;;;;17.84;32.35;101108.75;5074843;28;19987;-61
2023/09/24 09:28:27;;;;;;;;;;;;;;;17.98;32.42;101115.72;5075121;28;19977;-61
2023/09/24 09:31:00;;;;;;;;;;;;;;;18.07;32.95;101104.53;5074728;28;19916;-61
2023/09/24 09:33:27;;;;;;;;;;;;;;;18.22;34.81;101115.88;5074780;28;19916;-60
2023/09/24 09:35:52;;;;;;;;;;;;;;;18.17;32.05;101126.59;5074363;28;19924;-60
2023/09/24 09:38:17;;;;;;;;;;;;;;;18.26;32.80;101135.28;5074941;28;19912;-61
2023/09/24 09:40:43;;;;;;;;;;;;;;;18.31;32.93;101132.69;5074734;28;20369;-61
2023/09/24 09:43:09;;;;;;;;;;;;;;;18.31;31.46;101141.69;5074460;28;20018;-60
2023/09/24 09:45:35;;;;;;;;;;;;;;;18.34;30.61;101141.22;5074349;28;20017;-59
2023/09/24 09:48:04;;;;;;;;;;;;;;;18.47;30.85;101121.16;5074323;28;20010;-61
2023/09/24 09:50:32;;;;;;;;;;;;;;;18.56;30.98;101127.13;5074296;28;19918;-61
2023/09/24 09:53:01;;;;;;;;;;;;;;;18.70;32.91;101128.63;5074609;28;20020;-61
2023/09/24 09:55:26;;;;;;;;;;;;;;;18.86;31.67;101126.31;5079616;28;19947;-60
2023/09/24 09:57:53;;;;;;;;;;;;;;;18.98;31.30;101132.63;5065207;28;20387;-60
2023/09/24 10:00:18;;;;;;;;;;;;;;;19.17;31.84;101129.78;5074029;28;19921;-61
2023/09/24 10:02:45;;;;;;;;;;;;;;;19.42;31.68;101137.78;5061001;28;20285;-60
2023/09/24 10:05:11;;;;;;;;;;;;;;;19.61;33.23;101143.94;5054175;28;19995;-61
2023/09/24 10:07:40;;;;;;;;;;;;;;;19.76;30.89;101135.31;5054018;28;20377;-61
2023/09/24 10:10:24;;;;;;;;;;;;;;;19.85;30.10;101131.97;5058732;28;19920;-61
2023/09/24 10:12:49;;;;;;;;;;;;;;;19.93;29.22;101133.53;5074029;28;19956;-61
2023/09/24 10:15:27;;;;;;;;;;;;;;;20.07;29.27;101136.81;5073910;28;19958;-61
2023/09/24 10:18:08;;;;;;;;;;;;;;;20.28;29.83;101121.66;5093594;28;19927;-61
2023/09/24 10:20:49;;;;;;;;;;;;;;;20.51;28.95;101142.59;5055913;28;20025;-60
2023/09/24 10:23:29;;;;;;;;;;;;;;;20.57;27.46;101147.06;5073761;28;19913;-60
2023/09/24 10:26:00;;;;;;;;;;;;;;;20.60;27.41;101141.19;5073744;28;19916;-61
2023/09/24 10:28:44;;;;;;;;;;;;;;;20.66;27.54;101137.47;5073486;28;19916;-61
2023/09/24 10:31:11;;;;;;;;;;;;;;;20.91;28.00;101140.91;5073550;28;19923;-61
2023/09/24 10:33:52;;;;;;;;;;;;;;;21.05;28.36;101151.25;5073497;28;19920;-61
2023/09/24 10:36:22;;;;;;;;;;;;;;;21.07;26.98;101157.31;5073525;28;19912;-61
2023/09/24 10:39:02;;;;;;;;;;;;;;;21.08;28.39;101161.69;5073449;28;20296;-61
2023/09/24 10:41:28;;;;;;;;;;;;;;;21.17;28.59;101156.66;5073418;28;19923;-61
2023/09/24 10:44:12;;;;;;;;;;;;;;;21.32;27.39;101167.03;5073231;28;19913;-60
2023/09/24 10:46:37;;;;;;;;;;;;;;;21.36;27.70;101159.13;5073145;28;20364;-59
2023/09/24 10:49:03;;;;;;;;;;;;;;;21.44;27.59;101161.47;5073270;28;19913;-61
2023/09/24 10:51:28;;;;;;;;;;;;;;;21.55;27.91;101173.41;5073262;28;19912;-59
2023/09/24 10:54:10;;;;;;;;;;;;;;;21.65;29.36;101168.91;5072617;28;20326;-61
2023/09/24 10:56:35;;;;;;;;;;;;;;;21.68;27.32;101184.00;5089413;28;20019;-61
2023/09/24 10:59:01;;;;;;;;;;;;;;;21.67;26.67;101173.31;5093363;28;20381;-61
2023/09/24 11:01:30;;;;;;;;;;;;;;;21.90;29.27;101175.00;5090819;28;20327;-61
2023/09/24 11:03:55;;;;;;;;;;;;;;;22.05;28.51;101177.97;5073219;28;19928;-61
2023/09/24 11:06:28;;;;;;;;;;;;;;;22.11;26.25;101179.69;5072774;28;19912;-61
2023/09/24 11:08:54;;;;;;;;;;;;;;;22.21;29.62;101176.25;5072728;28;19921;-61
2023/09/24 11:11:19;;;;;;;;;;;;;;;22.30;26.15;101179.41;5058273;28;20011;-60
2023/09/24 11:13:45;;;;;;;;;;;;;;;22.34;26.77;101172.34;5052891;28;19916;-61
2023/09/24 11:16:10;;;;;;;;;;;;;;;22.47;26.78;101180.16;5077814;28;19923;-61
2023/09/24 11:18:35;;;;;;;;;;;;;;;22.45;25.68;101190.53;5093059;28;19920;-61
2023/09/24 11:21:01;;;;;;;;;;;;;;;22.71;26.33;101179.88;5079024;28;19962;-60
2023/09/24 11:23:34;;;;;;;;;;;;;;;22.65;25.51;101187.22;5073043;28;20431;-62
2023/09/24 11:26:00;;;;;;;;;;;;;;;22.75;25.55;101205.66;5071728;28;19916;-61
2023/09/24 11:28:30;;;;;;;;;;;;;;;22.79;25.57;101184.91;5076537;28;19917;-61
2023/09/24 11:30:55;;;;;;;;;;;;;;;22.97;26.51;101198.25;5072798;28;20007;-62
2023/09/24 11:33:21;;;;;;;;;;;;;;;23.11;27.81;101206.91;5072935;28;20011;-66
2023/09/24 11:35:47;;;;;;;;;;;;;;;23.24;24.88;101200.16;5072713;28;20388;-66
2023/09/24 11:38:14;;;;;;;;;;;;;;;23.37;24.71;101191.50;5073045;28;19912;-67
2023/09/24 11:40:42;;;;;;;;;;;;;;;23.38;26.41;101200.53;5073025;28;19912;-67
2023/09/24 11:43:12;;;;;;;;;;;;;;;23.49;23.92;101202.28;5072762;28;19912;-66
2023/09/24 11:45:38;;;;;;;;;;;;;;;23.70;25.12;101203.28;5072801;28;19912;-66
2023/09/24 11:48:05;;;;;;;;;;;;;;;23.86;24.05;101200.66;5073116;28;19974;-67
2023/09/24 11:50:30;;;;;;;;;;;;;;;23.90;23.00;101201.78;5072639;28;19919;-66
2023/09/24 11:52:55;;;;;;;;;;;;;;;23.96;22.91;101200.75;5072760;28;20003;-66
2023/09/24 11:55:20;;;;;;;;;;;;;;;24.20;23.86;101203.88;5072236;28;19913;-67
2023/09/24 11:57:46;;;;;;;;;;;;;;;24.37;24.34;101192.69;5072585;28;19982;-67
2023/09/24 12:00:12;;;;;;;;;;;;;;;24.62;33.11;101188.41;5054823;28;20358;-67
2023/09/24 12:02:37;;;;;;;;;;;;;;;24.77;24.30;101191.19;5072425;28;19912;-67
2023/09/24 12:05:03;;;;;;;;;;;;;;;24.96;23.36;101194.25;5072711;28;19919;-67
2023/09/24 12:07:32;;;;;;;;;;;;;;;25.10;24.14;101195.38;5054752;28;19912;-67
2023/09/24 12:09:57;;;;;;;;;;;;;;;25.23;23.25;101195.94;5068126;28;19921;-67
2023/09/24 12:12:23;;;;;;;;;;;;;;;25.47;23.73;101197.06;5068490;28;19919;-67
2023/09/24 12:14:48;;;;;;;;;;;;;;;25.63;24.36;101211.66;5071587;28;19912;-67
2023/09/24 12:17:13;;;;;;;;;;;;;;;25.57;21.25;101204.47;5088102;28;19964;-67
2023/09/24 12:19:38;;;;;;;;;;;;;;;25.67;23.30;101207.22;5094397;28;19916;-67
2023/09/24 12:22:04;;;;;;;;;;;;;;;25.73;22.46;101219.06;5095680;28;19912;-67
2023/09/24 12:24:29;;;;;;;;;;;;;;;25.74;23.18;101223.44;5087856;28;19913;-67
2023/09/24 12:26:54;;;;;;;;;;;;;;;25.95;25.09;101213.28;5077017;28;19916;-67
2023/09/24 12:29:20;;;;;;;;;;;;;;;26.06;22.39;101214.06;5083869;28;19920;-67
2023/09/24 12:31:45;;;;;;;;;;;;;;;26.01;24.46;101220.41;5075976;28;20276;-67